createdAt,value
2019-01-17T00:02:04.670Z,2.80
2019-01-17T00:04:53.148Z,2.60
2019-01-17T00:07:40.253Z,2.70
2019-01-17T00:10:29.152Z,2.83
2019-01-17T00:13:23.875Z,2.90
2019-01-17T00:16:27.478Z,2.50
2019-01-17T00:19:18.479Z,3.37
2019-01-17T00:22:05.576Z,2.85
2019-01-17T00:25:04.804Z,2.90
2019-01-17T00:27:43.449Z,2.83
2019-01-17T00:30:41.285Z,3.20
2019-01-17T00:33:23.102Z,3.40
2019-01-17T00:36:15.250Z,3.80
2019-01-17T00:39:02.708Z,4.25
2019-01-17T00:41:54.548Z,3.63
2019-01-17T00:44:49.213Z,3.10
2019-01-17T00:47:36.377Z,3.55
2019-01-17T00:50:24.740Z,3.22
2019-01-17T00:53:16.581Z,2.80
2019-01-17T00:56:01.942Z,2.30
2019-01-17T00:58:41.600Z,3.60
2019-01-17T01:01:30.025Z,2.37
2019-01-17T01:04:10.523Z,2.83
2019-01-17T01:07:04.887Z,2.50
2019-01-17T01:09:52.114Z,2.60
2019-01-17T01:12:30.209Z,3.10
2019-01-17T01:15:12.153Z,2.90
2019-01-17T01:17:51.331Z,3.02
2019-01-17T01:20:37.715Z,2.70
2019-01-17T01:23:28.841Z,2.83
2019-01-17T01:26:24.400Z,2.62
2019-01-17T01:29:23.441Z,2.90
2019-01-17T01:32:18.042Z,2.33
2019-01-17T01:35:06.525Z,3.00
2019-01-17T01:38:03.705Z,3.22
2019-01-17T01:41:07.249Z,3.02
2019-01-17T01:43:55.976Z,2.50
2019-01-17T01:46:37.492Z,2.47
2019-01-17T01:49:25.911Z,3.12
2019-01-17T01:52:14.335Z,2.40
2019-01-17T01:54:43.977Z,3.00
2019-01-17T01:57:13.498Z,2.60
2019-01-17T01:59:43.206Z,2.30
2019-01-17T02:02:12.661Z,2.98
2019-01-17T02:04:42.306Z,3.27
2019-01-17T02:07:11.825Z,3.55
2019-01-17T02:09:41.400Z,3.65
2019-01-17T02:12:10.988Z,3.33
2019-01-17T02:14:40.687Z,2.97
2019-01-17T02:17:10.630Z,3.50
2019-01-17T02:19:40.326Z,3.50
2019-01-17T02:22:10.393Z,3.80
2019-01-17T02:24:39.972Z,2.93
2019-01-17T02:27:09.560Z,3.33
2019-01-17T02:29:39.080Z,4.08
2019-01-17T02:32:08.608Z,4.85
2019-01-17T02:34:38.420Z,3.15
2019-01-17T02:37:07.886Z,6.35
2019-01-17T02:39:37.765Z,4.25
2019-01-17T02:42:07.285Z,3.08
2019-01-17T02:44:36.808Z,3.10
2019-01-17T02:47:06.211Z,4.08
2019-01-17T02:49:35.972Z,3.20
2019-01-17T02:52:05.852Z,2.90
2019-01-17T02:54:36.213Z,4.57
2019-01-17T02:57:05.739Z,3.22
2019-01-17T02:59:35.142Z,4.15
2019-01-17T03:02:04.718Z,3.60
2019-01-17T03:04:34.181Z,4.97
2019-01-17T03:07:03.826Z,6.42
2019-01-17T03:09:33.829Z,4.33
2019-01-17T03:12:03.467Z,4.42
2019-01-17T03:14:33.467Z,5.80
2019-01-17T03:17:03.045Z,4.20
2019-01-17T03:19:33.408Z,4.53
2019-01-17T03:22:03.352Z,4.95
2019-01-17T03:24:32.754Z,4.80
2019-01-17T03:27:02.215Z,3.60
2019-01-17T03:29:32.154Z,5.62
2019-01-17T03:32:01.738Z,11.00
2019-01-17T03:34:31.562Z,6.80
2019-01-17T03:37:01.082Z,6.05
2019-01-17T03:39:30.722Z,5.47
2019-01-17T03:42:00.364Z,4.67
2019-01-17T03:44:29.766Z,6.53
2019-01-17T03:46:59.168Z,5.42
2019-01-17T03:49:29.048Z,6.10
2019-01-17T03:51:58.689Z,6.55
2019-01-17T03:54:28.932Z,6.83
2019-01-17T03:56:58.578Z,7.65
2019-01-17T03:59:28.213Z,5.20
2019-01-17T04:01:58.102Z,7.50
2019-01-17T04:04:27.618Z,7.00
2019-01-17T04:06:57.139Z,7.40
2019-01-17T04:09:26.899Z,5.30
2019-01-17T04:11:56.545Z,8.13
2019-01-17T04:14:25.945Z,5.20
2019-01-17T04:16:55.704Z,6.87
2019-01-17T04:19:25.165Z,11.70
2019-01-17T04:21:54.627Z,5.90
2019-01-17T04:24:24.627Z,7.85
2019-01-17T04:26:55.166Z,9.30
2019-01-17T04:29:24.992Z,6.43
2019-01-17T04:31:54.514Z,6.85
2019-01-17T04:34:24.155Z,8.57
2019-01-17T04:36:53.916Z,7.20
2019-01-17T04:39:23.918Z,7.67
2019-01-17T04:41:53.319Z,9.00
2019-01-17T04:44:22.964Z,11.03
2019-01-17T04:46:53.088Z,10.60
2019-01-17T04:49:22.964Z,8.73
2019-01-17T04:51:52.903Z,13.30
2019-01-17T04:54:22.967Z,11.28
2019-01-17T04:56:53.384Z,5.78
2019-01-17T04:59:23.332Z,8.95
2019-01-17T05:01:52.732Z,10.50
2019-01-17T05:04:22.139Z,8.03
2019-01-17T05:06:53.215Z,7.10
2019-01-17T05:09:23.216Z,8.48
2019-01-17T05:11:52.619Z,8.38
2019-01-17T05:14:22.379Z,7.70
2019-01-17T05:16:52.081Z,8.65
2019-01-17T05:19:22.143Z,10.00
2019-01-17T05:21:51.545Z,12.53
2019-01-17T05:24:20.946Z,10.25
2019-01-17T05:26:50.411Z,8.73
2019-01-17T05:29:20.168Z,10.07
2019-01-17T05:31:50.474Z,5.58
2019-01-17T05:34:21.081Z,8.43
2019-01-17T05:36:51.076Z,8.68
2019-01-17T05:39:20.954Z,10.80
2019-01-17T05:41:50.478Z,8.23
2019-01-17T05:44:20.239Z,9.18
2019-01-17T05:46:49.999Z,8.15
2019-01-17T05:49:20.060Z,6.50
2019-01-17T05:51:49.769Z,7.60
2019-01-17T05:54:19.284Z,11.60
2019-01-17T05:56:48.623Z,8.73
2019-01-17T05:59:18.089Z,8.00
2019-01-17T06:01:47.907Z,6.20
2019-01-17T06:04:17.850Z,11.28
2019-01-17T06:06:47.852Z,6.70
2019-01-17T06:09:17.552Z,8.93
2019-01-17T06:11:47.134Z,13.32
2019-01-17T06:14:17.273Z,11.33
2019-01-17T06:16:48.035Z,11.33
2019-01-17T06:19:18.460Z,9.05
2019-01-17T06:21:48.102Z,6.92
2019-01-17T06:24:18.341Z,10.30
2019-01-17T06:26:47.871Z,8.83
2019-01-17T06:29:17.506Z,10.53
2019-01-17T06:31:47.629Z,14.63
2019-01-17T06:34:17.028Z,8.25
2019-01-17T06:36:46.672Z,19.45
2019-01-17T06:39:16.607Z,20.13
2019-01-17T06:41:46.319Z,15.95
2019-01-17T06:44:20.232Z,15.88
2019-01-17T06:46:46.921Z,13.03
2019-01-17T06:49:16.443Z,13.62
2019-01-17T06:51:46.322Z,10.10
2019-01-17T06:54:16.325Z,10.48
2019-01-17T06:56:45.726Z,11.40
2019-01-17T06:59:15.366Z,12.10
2019-01-17T07:01:44.886Z,15.85
2019-01-17T07:04:14.527Z,14.25
2019-01-17T07:06:44.059Z,11.12
2019-01-17T07:09:13.626Z,18.12
2019-01-17T07:11:43.451Z,13.20
2019-01-17T07:14:13.512Z,9.90
2019-01-17T07:16:43.213Z,10.70
2019-01-17T07:19:13.104Z,9.70
2019-01-17T07:21:42.742Z,12.75
2019-01-17T07:24:12.620Z,9.73
2019-01-17T07:26:42.380Z,10.93
2019-01-17T07:29:12.262Z,10.10
2019-01-17T07:31:42.266Z,9.45
2019-01-17T07:34:11.846Z,11.53
2019-01-17T07:37:00.251Z,9.55
2019-01-17T07:39:29.073Z,8.25
2019-01-17T07:41:57.881Z,8.35
2019-01-17T07:44:26.705Z,9.53
2019-01-17T07:46:55.628Z,7.58
2019-01-17T07:49:24.538Z,13.18
2019-01-17T07:51:53.477Z,10.05
2019-01-17T07:54:23.034Z,14.13
2019-01-17T07:56:52.251Z,11.25
2019-01-17T07:59:21.081Z,11.88
2019-01-17T08:01:49.949Z,10.53
2019-01-17T08:04:19.104Z,8.85
2019-01-17T08:06:48.344Z,10.08
2019-01-17T08:09:17.242Z,9.18
2019-01-17T08:11:46.109Z,7.45
2019-01-17T08:14:14.908Z,10.03
2019-01-17T08:16:44.064Z,9.57
2019-01-17T08:19:12.945Z,6.63
2019-01-17T08:21:41.851Z,6.15
2019-01-17T08:24:10.694Z,8.48
2019-01-17T08:26:39.554Z,6.72
2019-01-17T08:29:09.053Z,10.63
2019-01-17T08:31:37.859Z,8.65
2019-01-17T08:34:06.753Z,8.73
2019-01-17T08:36:35.632Z,8.53
2019-01-17T08:39:07.605Z,6.45
2019-01-17T08:41:36.629Z,6.30
2019-01-17T08:44:05.858Z,10.95
2019-01-17T08:46:34.750Z,10.33
2019-01-17T08:49:03.739Z,7.42
2019-01-17T08:51:32.644Z,8.60
2019-01-17T08:54:01.474Z,8.40
2019-01-17T08:56:30.353Z,5.22
2019-01-17T08:58:59.199Z,6.62
2019-01-17T09:01:28.005Z,4.97
2019-01-17T09:03:57.149Z,9.70
2019-01-17T09:06:26.144Z,6.20
2019-01-17T09:08:55.248Z,8.45
2019-01-17T09:11:24.204Z,5.22
2019-01-17T09:13:53.152Z,6.40
2019-01-17T09:16:22.140Z,6.10
2019-01-17T09:18:51.303Z,5.50
2019-01-17T09:21:20.500Z,6.70
2019-01-17T09:23:49.392Z,6.83
2019-01-17T09:26:18.304Z,8.35
2019-01-17T09:28:47.140Z,9.13
2019-01-17T09:31:16.041Z,6.05
2019-01-17T09:33:44.911Z,5.45
2019-01-17T09:36:13.824Z,8.80
2019-01-17T09:38:42.618Z,4.62
2019-01-17T09:41:11.461Z,8.75
2019-01-17T09:43:40.376Z,6.03
2019-01-17T09:46:09.616Z,5.50
2019-01-17T09:48:38.397Z,5.70
2019-01-17T09:51:07.753Z,5.22
2019-01-17T09:53:36.644Z,4.83
2019-01-17T09:56:05.915Z,7.30
2019-01-17T09:58:34.750Z,6.97
2019-01-17T10:01:03.625Z,7.30
2019-01-17T10:03:32.824Z,6.00
2019-01-17T10:06:01.710Z,7.20
2019-01-17T10:08:30.700Z,7.72
2019-01-17T10:11:00.127Z,5.20
2019-01-17T10:13:32.097Z,7.27
2019-01-17T10:16:16.661Z,11.25
2019-01-17T10:19:37.054Z,7.65
2019-01-17T10:22:55.640Z,8.60
2019-01-17T10:25:56.910Z,7.30
2019-01-17T10:29:17.902Z,4.83
2019-01-17T10:32:18.846Z,4.40
2019-01-17T10:34:58.616Z,4.50
2019-01-17T10:38:36.333Z,5.22
2019-01-17T10:41:48.439Z,5.00
2019-01-17T10:44:38.249Z,7.73
2019-01-17T10:47:39.926Z,6.12
2019-01-17T10:50:17.758Z,4.73
2019-01-17T10:53:28.449Z,4.50
2019-01-17T10:56:27.641Z,5.33
2019-01-17T10:59:16.888Z,9.75
2019-01-17T11:02:23.442Z,11.05
2019-01-17T11:05:23.696Z,5.72
2019-01-17T11:08:07.581Z,6.67
2019-01-17T11:11:14.745Z,7.10
2019-01-17T11:14:13.800Z,9.85
2019-01-17T11:17:19.479Z,8.40
2019-01-17T11:19:58.848Z,5.92
2019-01-17T11:22:59.617Z,4.42
2019-01-17T11:26:22.480Z,5.50
2019-01-17T11:29:26.791Z,7.85
2019-01-17T11:32:36.342Z,4.87
2019-01-17T11:35:38.203Z,4.70
2019-01-17T11:38:39.532Z,5.72
2019-01-17T11:41:17.138Z,5.87
2019-01-17T11:44:04.057Z,8.50
2019-01-17T11:46:58.885Z,9.50
2019-01-17T11:49:53.310Z,5.17
2019-01-17T11:52:55.480Z,7.42
2019-01-17T11:55:49.188Z,5.78
2019-01-17T11:58:47.410Z,5.45
2019-01-17T12:01:38.604Z,7.42
2019-01-17T12:04:29.966Z,12.30
2019-01-17T12:07:01.093Z,13.07
2019-01-17T12:09:30.372Z,17.30
2019-01-17T12:11:59.604Z,10.33
2019-01-17T12:14:28.725Z,7.60
2019-01-17T12:16:57.636Z,6.10
2019-01-17T12:19:27.289Z,5.45
2019-01-17T12:21:56.341Z,7.97
2019-01-17T12:24:25.564Z,6.87
2019-01-17T12:26:54.539Z,7.77
2019-01-17T12:29:23.352Z,5.87
2019-01-17T12:31:52.254Z,5.97
2019-01-17T12:34:21.096Z,7.03
2019-01-17T12:36:49.896Z,11.35
2019-01-17T12:39:18.692Z,6.80
2019-01-17T12:41:47.850Z,4.40
2019-01-17T12:44:16.749Z,8.25
2019-01-17T12:46:46.183Z,4.87
2019-01-17T12:49:15.054Z,5.30
2019-01-17T12:51:43.943Z,5.75
2019-01-17T12:54:13.003Z,5.57
2019-01-17T12:56:42.136Z,7.80
2019-01-17T12:59:10.944Z,5.30
2019-01-17T13:01:40.108Z,7.20
2019-01-17T13:04:09.036Z,5.90
2019-01-17T13:06:37.872Z,9.03
2019-01-17T13:09:09.313Z,5.97
2019-01-17T13:11:38.311Z,6.50
2019-01-17T13:14:07.128Z,9.90
2019-01-17T13:16:36.541Z,7.40
2019-01-17T13:19:05.857Z,8.73
2019-01-17T13:21:34.851Z,7.15
2019-01-17T13:24:04.187Z,5.22
2019-01-17T13:26:33.443Z,5.22
2019-01-17T13:29:02.352Z,3.90
2019-01-17T13:31:31.146Z,3.80
2019-01-17T13:34:00.869Z,3.23
2019-01-17T13:36:29.776Z,2.37
2019-01-17T13:38:58.656Z,1.90
2019-01-17T13:41:27.537Z,2.03
2019-01-17T13:43:56.343Z,3.55
2019-01-17T13:46:25.355Z,2.55
2019-01-17T13:48:54.389Z,1.70
2019-01-17T13:51:23.339Z,2.30
2019-01-17T13:53:52.291Z,4.15
2019-01-17T13:56:21.191Z,4.80
2019-01-17T13:58:50.297Z,2.22
2019-01-17T14:01:19.195Z,2.40
2019-01-17T14:03:48.320Z,4.40
2019-01-17T14:06:17.188Z,2.50
2019-01-17T14:08:46.136Z,2.40
2019-01-17T14:11:14.921Z,3.70
2019-01-17T14:13:43.781Z,3.23
2019-01-17T14:16:12.680Z,3.17
2019-01-17T14:18:42.150Z,2.80
2019-01-17T14:21:11.104Z,2.50
2019-01-17T14:23:39.920Z,3.12
2019-01-17T14:26:09.132Z,3.40
2019-01-17T14:28:38.216Z,4.40
2019-01-17T14:31:07.115Z,5.13
2019-01-17T14:33:36.189Z,4.10
2019-01-17T14:36:05.441Z,4.40
2019-01-17T14:38:34.301Z,4.95
2019-01-17T14:41:03.523Z,5.83
2019-01-17T14:43:32.370Z,6.00
2019-01-17T14:46:01.296Z,7.20
2019-01-17T14:48:30.656Z,4.70
2019-01-17T14:50:59.485Z,5.53
2019-01-17T14:53:28.734Z,6.00
2019-01-17T14:55:57.856Z,5.70
2019-01-17T14:58:26.748Z,5.30
2019-01-17T15:00:55.987Z,8.65
2019-01-17T15:03:25.325Z,4.30
2019-01-17T15:05:54.171Z,7.10
2019-01-17T15:08:23.201Z,4.00
2019-01-17T15:10:52.029Z,3.57
2019-01-17T15:13:21.141Z,3.12
2019-01-17T15:15:49.987Z,3.58
2019-01-17T15:18:19.281Z,5.20
2019-01-17T15:20:48.109Z,3.20
2019-01-17T15:23:17.395Z,3.43
2019-01-17T15:25:46.276Z,3.50
2019-01-17T15:28:15.369Z,3.22
2019-01-17T15:30:44.881Z,2.80
2019-01-17T15:33:13.924Z,4.10
2019-01-17T15:35:43.028Z,3.90
2019-01-17T15:38:11.867Z,4.47
2019-01-17T15:40:40.779Z,4.70
2019-01-17T15:43:10.054Z,4.10
2019-01-17T15:45:39.294Z,3.60
2019-01-17T15:48:08.622Z,3.30
2019-01-17T15:50:37.513Z,3.05
2019-01-17T15:53:06.296Z,3.60
2019-01-17T15:55:35.549Z,3.37
2019-01-17T15:58:04.497Z,5.78
2019-01-17T16:00:34.093Z,3.00
2019-01-17T16:03:03.293Z,4.33
2019-01-17T16:05:32.242Z,4.08
2019-01-17T16:08:01.509Z,5.27
2019-01-17T16:10:30.336Z,3.10
2019-01-17T16:12:59.903Z,2.65
2019-01-17T16:15:28.865Z,7.20
2019-01-17T16:17:57.756Z,7.20
2019-01-17T16:20:27.524Z,4.40
2019-01-17T16:22:56.713Z,3.52
2019-01-17T16:25:25.745Z,5.78
2019-01-17T16:27:54.607Z,3.62
2019-01-17T16:30:26.071Z,3.20
2019-01-17T16:32:55.840Z,4.15
2019-01-17T16:35:25.620Z,4.20
2019-01-17T16:37:54.609Z,3.33
2019-01-17T16:40:23.545Z,3.17
2019-01-17T16:42:52.484Z,4.67
2019-01-17T16:45:22.173Z,4.33
2019-01-17T16:47:51.435Z,3.47
2019-01-17T16:50:22.312Z,2.50
2019-01-17T16:52:51.265Z,2.33
2019-01-17T16:55:20.259Z,2.85
2019-01-17T16:57:49.475Z,4.10
2019-01-17T17:00:27.261Z,2.75
2019-01-17T17:02:56.501Z,4.80
2019-01-17T17:05:26.021Z,3.40
2019-01-17T17:07:54.857Z,3.00
2019-01-17T17:10:23.715Z,2.30
2019-01-17T17:12:52.623Z,3.22
2019-01-17T17:15:21.600Z,2.60
2019-01-17T17:17:50.743Z,4.30
2019-01-17T17:20:20.191Z,2.80
2019-01-17T17:22:49.195Z,2.40
2019-01-17T17:25:18.137Z,2.80
2019-01-17T17:27:47.096Z,3.80
2019-01-17T17:30:18.374Z,2.80
2019-01-17T17:32:47.322Z,2.50
2019-01-17T17:35:16.296Z,2.12
2019-01-17T17:37:45.169Z,2.00
2019-01-17T17:40:25.876Z,3.83
2019-01-17T17:42:54.877Z,3.33
2019-01-17T17:45:23.800Z,2.65
2019-01-17T17:47:52.933Z,7.70
2019-01-17T17:50:22.098Z,2.20
2019-01-17T17:52:51.028Z,4.20
2019-01-17T17:55:20.063Z,3.92
2019-01-17T17:57:50.561Z,3.67
2019-01-17T18:00:28.205Z,2.20
2019-01-17T18:02:57.710Z,2.42
2019-01-17T18:05:26.933Z,3.50
2019-01-17T18:07:55.872Z,7.72
2019-01-17T18:10:24.876Z,2.25
2019-01-17T18:12:53.783Z,2.50
2019-01-17T18:15:22.712Z,2.02
2019-01-17T18:17:51.801Z,4.53
2019-01-17T18:20:20.798Z,2.75
2019-01-17T18:22:49.790Z,2.10
2019-01-17T18:25:18.851Z,1.80
2019-01-17T18:27:47.728Z,4.92
2019-01-17T18:30:19.078Z,2.17
2019-01-17T18:32:48.317Z,2.17
2019-01-17T18:35:17.369Z,2.30
2019-01-17T18:37:46.407Z,1.95
2019-01-17T18:40:16.348Z,2.00
2019-01-17T18:42:45.636Z,2.35
2019-01-17T18:45:17.188Z,2.07
2019-01-17T18:47:46.139Z,2.30
2019-01-17T18:50:18.497Z,2.83
2019-01-17T18:52:47.649Z,3.60
2019-01-17T18:55:17.567Z,2.62
2019-01-17T18:57:46.596Z,5.10
2019-01-17T19:00:20.319Z,2.13
2019-01-17T19:02:49.353Z,2.20
2019-01-17T19:05:18.401Z,2.80
2019-01-17T19:07:47.346Z,2.10
2019-01-17T19:10:17.119Z,3.80
2019-01-17T19:12:46.080Z,3.60
2019-01-17T19:15:18.301Z,2.35
2019-01-17T19:17:47.342Z,5.47
2019-01-17T19:20:16.787Z,2.20
2019-01-17T19:22:45.653Z,3.62
2019-01-17T19:25:14.820Z,3.15
2019-01-17T19:27:43.790Z,2.20
2019-01-17T19:30:15.849Z,3.67
2019-01-17T19:32:45.131Z,2.10
2019-01-17T19:35:14.364Z,2.50
2019-01-17T19:37:43.521Z,2.20
2019-01-17T19:40:15.573Z,3.58
2019-01-17T19:42:44.672Z,3.40
2019-01-17T19:45:14.412Z,6.95
2019-01-17T19:47:43.377Z,2.60
2019-01-17T19:50:16.531Z,2.60
2019-01-17T19:52:45.629Z,3.00
2019-01-17T19:55:14.555Z,2.22
2019-01-17T19:57:43.421Z,2.30
2019-01-17T20:00:13.469Z,5.80
2019-01-17T20:02:42.416Z,2.22
2019-01-17T20:05:12.813Z,3.25
2019-01-17T20:07:41.783Z,3.27
2019-01-17T20:10:16.952Z,4.40
2019-01-17T20:12:45.828Z,2.72
2019-01-17T20:15:14.804Z,5.70
2019-01-17T20:17:44.124Z,6.75
2019-01-17T20:20:14.208Z,4.77
2019-01-17T20:22:43.141Z,3.00
2019-01-17T20:25:12.492Z,1.80
2019-01-17T20:27:41.425Z,4.30
2019-01-17T20:30:16.555Z,2.15
2019-01-17T20:32:45.820Z,2.02
2019-01-17T20:35:14.773Z,2.40
2019-01-17T20:37:43.712Z,1.57
2019-01-17T20:40:15.025Z,0.70
2019-01-17T20:42:44.091Z,0.70
2019-01-17T20:45:13.595Z,0.70
2019-01-17T20:47:42.560Z,1.00
2019-01-17T20:50:14.120Z,1.30
2019-01-17T20:52:43.412Z,1.80
2019-01-17T20:55:12.885Z,1.40
2019-01-17T20:57:42.764Z,2.30
2019-01-17T21:00:19.181Z,1.80
2019-01-17T21:02:48.072Z,3.02
2019-01-17T21:05:17.661Z,5.95
2019-01-17T21:07:46.984Z,3.45
2019-01-17T21:10:16.077Z,0.80
2019-01-17T21:12:44.983Z,2.70
2019-01-17T21:15:14.267Z,3.80
2019-01-17T21:17:43.477Z,2.20
2019-01-17T21:20:12.544Z,1.15
2019-01-17T21:22:41.408Z,1.10
2019-01-17T21:25:12.940Z,0.90
2019-01-17T21:27:42.072Z,0.80
2019-01-17T21:30:20.208Z,1.20
2019-01-17T21:32:49.100Z,1.15
2019-01-17T21:35:18.316Z,2.00
2019-01-17T21:37:47.392Z,1.10
2019-01-17T21:40:18.031Z,1.42
2019-01-17T21:42:46.855Z,1.00
2019-01-17T21:45:17.351Z,0.70
2019-01-17T21:47:46.256Z,1.40
2019-01-17T21:50:21.451Z,1.70
2019-01-17T21:52:50.564Z,1.00
2019-01-17T21:55:19.827Z,0.90
2019-01-17T21:57:48.721Z,1.33
2019-01-17T22:00:20.288Z,0.90
2019-01-17T22:02:49.469Z,0.90
2019-01-17T22:05:18.367Z,1.00
2019-01-17T22:07:47.994Z,3.90
2019-01-17T22:10:18.368Z,0.80
2019-01-17T22:12:47.612Z,0.90
2019-01-17T22:15:21.712Z,2.37
2019-01-17T22:17:50.581Z,1.10
2019-01-17T22:20:20.012Z,2.00
2019-01-17T22:22:48.852Z,1.07
2019-01-17T22:25:18.440Z,1.10
2019-01-17T22:27:48.460Z,1.10
2019-01-17T22:30:19.598Z,0.98
2019-01-17T22:32:48.767Z,2.33
2019-01-17T22:35:17.700Z,1.30
2019-01-17T22:37:46.687Z,1.20
2019-01-17T22:40:15.919Z,1.80
2019-01-17T22:42:45.140Z,1.40
2019-01-17T22:45:19.648Z,1.30
2019-01-17T22:47:48.796Z,3.50
2019-01-17T22:50:17.925Z,1.30
2019-01-17T22:52:47.556Z,1.22
2019-01-17T22:55:16.838Z,2.90
2019-01-17T22:57:45.891Z,1.00
2019-01-17T23:00:49.471Z,1.00
2019-01-17T23:03:22.925Z,1.00
2019-01-17T23:05:51.860Z,1.10
2019-01-17T23:08:20.724Z,1.10
2019-01-17T23:10:49.925Z,0.95
2019-01-17T23:13:18.943Z,1.60
2019-01-17T23:15:47.834Z,1.80
2019-01-17T23:18:16.731Z,1.17
2019-01-17T23:20:45.579Z,1.20
2019-01-17T23:23:14.513Z,1.20
2019-01-17T23:25:43.423Z,2.20
2019-01-17T23:28:12.771Z,1.30
2019-01-17T23:30:42.346Z,1.40
2019-01-17T23:33:11.780Z,1.20
2019-01-17T23:35:40.588Z,1.20
2019-01-17T23:38:09.543Z,1.07
2019-01-17T23:40:38.493Z,1.40
2019-01-17T23:43:07.759Z,1.30
2019-01-17T23:45:36.620Z,2.50
2019-01-17T23:48:05.999Z,1.25
2019-01-17T23:50:35.455Z,1.30
2019-01-17T23:53:04.731Z,0.90
2019-01-17T23:55:33.625Z,0.80
2019-01-17T23:58:02.476Z,1.40
